createdAt,value
2017-08-14T00:01:06.230Z,5.50
2017-08-14T00:03:35.886Z,5.57
2017-08-14T00:06:05.473Z,6.60
2017-08-14T00:08:35.765Z,6.47
2017-08-14T00:11:05.378Z,6.67
2017-08-14T00:13:34.962Z,6.43
2017-08-14T00:18:59.369Z,6.97
2017-08-14T00:21:28.938Z,6.70
2017-08-14T00:23:58.504Z,7.40
2017-08-14T00:26:28.124Z,6.93
2017-08-14T00:28:57.708Z,7.23
2017-08-14T00:34:21.959Z,6.50
2017-08-14T00:36:51.530Z,5.77
2017-08-14T00:39:21.110Z,7.80
2017-08-14T00:41:50.717Z,5.43
2017-08-14T00:47:15.357Z,8.13
2017-08-14T00:49:44.924Z,7.07
2017-08-14T00:52:14.534Z,8.50
2017-08-14T00:54:44.107Z,8.00
2017-08-14T00:57:13.705Z,6.07
2017-08-14T00:59:43.793Z,5.90
2017-08-14T01:02:13.349Z,5.40
2017-08-14T01:04:42.950Z,7.07
2017-08-14T01:07:12.527Z,5.70
2017-08-14T01:09:42.137Z,5.57
2017-08-14T01:12:11.705Z,7.30
2017-08-14T01:14:41.288Z,6.17
2017-08-14T01:17:10.903Z,8.23
2017-08-14T01:19:40.472Z,9.40
2017-08-14T01:22:10.033Z,9.20
2017-08-14T01:24:39.650Z,9.47
2017-08-14T01:27:09.212Z,5.33
2017-08-14T01:29:38.799Z,8.53
2017-08-14T01:32:08.402Z,5.50
2017-08-14T01:34:37.964Z,7.77
2017-08-14T01:37:07.533Z,8.30
2017-08-14T01:39:37.156Z,9.93
2017-08-14T01:42:06.726Z,9.77
2017-08-14T01:44:36.302Z,9.87
2017-08-14T01:50:00.921Z,9.90
2017-08-14T01:52:30.502Z,10.00
2017-08-14T01:55:00.140Z,10.73
2017-08-14T01:57:29.764Z,11.03
2017-08-14T02:02:54.785Z,9.40
2017-08-14T02:05:24.377Z,10.83
2017-08-14T02:07:53.998Z,11.17
2017-08-14T02:10:23.572Z,12.13
2017-08-14T02:12:53.127Z,10.40
2017-08-14T02:15:22.782Z,11.07
2017-08-14T02:17:52.357Z,10.87
2017-08-14T02:20:21.953Z,10.93
2017-08-14T02:22:51.566Z,11.90
2017-08-14T02:25:21.156Z,12.20
2017-08-14T02:30:45.985Z,11.57
2017-08-14T02:33:15.553Z,6.80
2017-08-14T02:35:45.128Z,6.90
2017-08-14T02:38:14.733Z,10.67
2017-08-14T02:40:44.314Z,11.10
2017-08-14T02:43:13.893Z,12.40
2017-08-14T02:45:43.531Z,11.00
2017-08-14T02:48:13.103Z,12.13
2017-08-14T02:50:42.683Z,11.83
2017-08-14T02:53:12.306Z,8.33
2017-08-14T02:55:41.877Z,9.90
2017-08-14T03:01:06.902Z,10.90
2017-08-14T03:03:36.527Z,10.90
2017-08-14T03:06:06.110Z,7.20
2017-08-14T03:08:35.711Z,9.30
2017-08-14T03:14:00.053Z,11.50
2017-08-14T03:16:29.636Z,10.10
2017-08-14T03:18:59.206Z,7.20
2017-08-14T03:21:28.827Z,8.50
2017-08-14T03:23:58.393Z,6.13
2017-08-14T03:26:35.925Z,5.93
2017-08-14T03:29:05.495Z,5.90
2017-08-14T03:31:35.071Z,9.50
2017-08-14T03:34:04.741Z,5.50
2017-08-14T03:36:34.316Z,7.00
2017-08-14T03:39:03.890Z,6.10
2017-08-14T03:41:37.044Z,6.20
2017-08-14T03:44:06.610Z,5.93
2017-08-14T03:46:36.178Z,5.70
2017-08-14T03:49:05.776Z,7.63
2017-08-14T03:51:36.359Z,9.20
2017-08-14T03:57:00.621Z,10.70
2017-08-14T03:59:30.211Z,6.50
2017-08-14T04:01:59.784Z,7.90
2017-08-14T04:07:37.483Z,8.27
2017-08-14T04:10:07.068Z,11.57
2017-08-14T04:12:36.658Z,7.93
2017-08-14T04:15:06.264Z,5.47
2017-08-14T04:17:35.833Z,5.73
2017-08-14T04:20:05.405Z,5.90
2017-08-14T04:22:35.012Z,6.10
2017-08-14T04:25:04.585Z,5.40
2017-08-14T04:27:34.170Z,6.40
2017-08-14T04:30:03.769Z,7.13
2017-08-14T04:32:36.650Z,5.80
2017-08-14T04:35:06.266Z,5.30
2017-08-14T04:37:35.850Z,5.87
2017-08-14T04:40:05.442Z,6.60
2017-08-14T04:42:35.063Z,5.17
2017-08-14T04:45:04.638Z,5.17
2017-08-14T04:47:37.692Z,5.83
2017-08-14T04:50:07.256Z,5.63
2017-08-14T04:52:36.871Z,5.40
2017-08-14T04:55:06.436Z,6.37
2017-08-14T04:57:35.996Z,5.77
2017-08-14T05:00:05.609Z,6.57
2017-08-14T05:02:35.191Z,6.20
2017-08-14T05:05:04.813Z,5.67
2017-08-14T05:07:34.386Z,5.77
2017-08-14T05:10:03.957Z,5.73
2017-08-14T05:12:33.577Z,6.00
2017-08-14T05:17:58.394Z,8.80
2017-08-14T05:20:27.975Z,7.83
2017-08-14T05:22:57.544Z,6.67
2017-08-14T05:25:27.144Z,5.40
2017-08-14T05:27:56.705Z,6.73
2017-08-14T05:30:36.591Z,5.83
2017-08-14T05:33:06.162Z,5.80
2017-08-14T05:35:35.737Z,5.90
2017-08-14T05:38:05.351Z,5.70
2017-08-14T05:40:34.944Z,5.47
2017-08-14T05:43:04.548Z,5.27
2017-08-14T05:45:37.538Z,5.90
2017-08-14T05:48:07.156Z,8.00
2017-08-14T05:50:36.730Z,7.50
2017-08-14T05:53:06.309Z,5.93
2017-08-14T05:55:35.908Z,6.40
2017-08-14T06:00:47.400Z,5.57
2017-08-14T06:03:17.018Z,6.77
2017-08-14T06:05:46.639Z,5.20
2017-08-14T06:08:16.203Z,5.60
2017-08-14T06:10:45.779Z,6.90
2017-08-14T06:13:15.405Z,7.57
2017-08-14T06:15:44.972Z,6.30
2017-08-14T06:18:35.652Z,5.70
2017-08-14T06:23:59.953Z,6.50
2017-08-14T06:26:36.207Z,5.23
2017-08-14T06:37:50.044Z,6.00
2017-08-14T06:40:36.133Z,6.30
2017-08-14T06:46:01.032Z,5.47
2017-08-14T06:48:36.489Z,5.77
2017-08-14T06:54:01.112Z,6.20
2017-08-14T06:56:36.566Z,6.10
2017-08-14T07:08:18.437Z,5.73
2017-08-14T07:25:35.014Z,5.13
2017-08-14T07:39:43.200Z,4.43
2017-08-14T08:05:55.223Z,4.70
2017-08-14T08:11:29.267Z,4.33
2017-08-14T08:28:38.736Z,4.93
2017-08-14T08:34:03.275Z,4.20
2017-08-14T08:36:32.849Z,2.93
2017-08-14T08:39:02.422Z,4.00
2017-08-14T08:44:35.766Z,3.30
2017-08-14T08:52:54.610Z,3.70
2017-08-14T08:55:36.895Z,3.47
2017-08-14T09:03:56.641Z,3.60
2017-08-14T09:06:36.009Z,4.73
2017-08-14T09:17:49.973Z,3.30
2017-08-14T09:20:19.559Z,3.97
2017-08-14T09:25:37.606Z,3.57
2017-08-14T09:28:07.183Z,3.53
2017-08-14T09:30:37.108Z,3.03
2017-08-14T09:33:06.709Z,3.40
2017-08-14T09:35:36.283Z,3.50
2017-08-14T09:38:05.852Z,3.10
2017-08-14T09:43:37.392Z,2.97
2017-08-14T09:46:06.980Z,3.67
2017-08-14T09:48:36.549Z,3.00
2017-08-14T09:56:55.521Z,3.00
2017-08-14T09:59:37.565Z,3.17
2017-08-14T10:05:02.434Z,2.60
2017-08-14T10:10:36.110Z,3.03
2017-08-14T10:15:44.468Z,3.07
2017-08-14T10:18:35.285Z,3.00
2017-08-14T10:21:04.923Z,3.07
2017-08-14T10:23:37.735Z,3.40
2017-08-14T10:34:51.396Z,3.40
2017-08-14T10:37:37.387Z,3.30
2017-08-14T10:43:02.623Z,3.50
2017-08-14T10:45:37.916Z,3.80
2017-08-14T10:48:20.225Z,3.57
2017-08-14T10:50:49.790Z,3.40
2017-08-14T10:56:14.762Z,2.90
2017-08-14T10:58:44.358Z,3.10
2017-08-14T11:01:35.762Z,3.13
2017-08-14T11:06:59.987Z,3.30
2017-08-14T11:09:29.557Z,3.37
2017-08-14T11:23:37.969Z,3.53
2017-08-14T11:29:02.477Z,3.50
2017-08-14T11:42:55.654Z,2.83
2017-08-14T11:45:37.699Z,3.10
2017-08-14T11:48:07.304Z,3.07
2017-08-14T11:50:36.878Z,2.90
2017-08-14T11:56:01.759Z,3.10
2017-08-14T11:58:36.986Z,2.90
2017-08-14T12:01:06.600Z,2.87
2017-08-14T12:03:37.472Z,2.77
2017-08-14T12:09:01.723Z,3.30
2017-08-14T12:11:37.115Z,2.60
2017-08-14T12:19:56.399Z,2.70
2017-08-14T12:22:29.710Z,2.67
2017-08-14T12:24:59.349Z,2.60
2017-08-14T12:27:35.578Z,2.63
2017-08-14T12:30:05.189Z,2.40
2017-08-14T12:35:36.642Z,2.40
2017-08-14T12:38:06.240Z,2.30
2017-08-14T12:40:35.880Z,2.80
2017-08-14T12:46:11.355Z,3.37
2017-08-14T12:48:40.987Z,2.77
2017-08-14T12:51:10.553Z,3.53
2017-08-14T12:53:40.191Z,3.10
2017-08-14T12:56:09.771Z,2.67
2017-08-14T12:58:39.414Z,2.30
2017-08-14T13:01:08.980Z,3.00
2017-08-14T13:06:36.859Z,2.50
2017-08-14T13:20:36.358Z,2.77
2017-08-14T13:40:37.294Z,2.90
2017-08-14T13:54:46.287Z,3.33
2017-08-14T14:12:03.644Z,2.93
2017-08-14T14:35:19.510Z,3.00
2017-08-14T14:40:43.754Z,2.90
2017-08-14T15:03:37.580Z,2.73
2017-08-14T15:14:50.899Z,3.03
2017-08-14T15:31:50.538Z,2.80
2017-08-14T16:06:36.693Z,3.20
2017-08-14T16:21:10.510Z,3.20
2017-08-14T16:26:37.534Z,3.50
2017-08-14T16:46:44.736Z,2.70
2017-08-14T16:49:35.481Z,3.37
2017-08-14T17:06:38.510Z,3.00
2017-08-14T17:09:08.085Z,2.90
2017-08-14T17:26:14.512Z,3.40
2017-08-14T17:28:44.304Z,3.10
2017-08-14T17:31:13.874Z,3.17
2017-08-14T17:33:43.449Z,5.57
2017-08-14T17:36:36.268Z,4.07
2017-08-14T17:39:05.837Z,6.40
2017-08-14T17:41:35.423Z,4.67
2017-08-14T17:44:05.042Z,7.03
2017-08-14T17:46:34.640Z,11.70
2017-08-14T17:49:04.227Z,8.57
2017-08-14T17:51:33.863Z,6.33
2017-08-14T17:56:58.210Z,8.90
2017-08-14T17:59:27.783Z,6.60
2017-08-14T18:01:57.349Z,6.53
2017-08-14T18:04:36.612Z,5.00
2017-08-14T18:07:06.178Z,4.10
2017-08-14T18:09:37.106Z,3.80
2017-08-14T18:12:07.577Z,4.90
2017-08-14T18:14:37.204Z,5.30
2017-08-14T18:17:06.777Z,5.10
2017-08-14T18:19:36.657Z,4.07
2017-08-14T18:24:41.048Z,5.20
2017-08-14T18:30:06.105Z,3.30
2017-08-14T18:32:36.586Z,3.87
2017-08-14T18:55:36.833Z,4.20
2017-08-14T19:09:52.747Z,4.20
2017-08-14T19:15:35.662Z,4.33
2017-08-14T19:29:43.697Z,5.50
2017-08-14T19:32:16.315Z,4.27
2017-08-14T19:43:36.946Z,4.70
2017-08-14T20:00:39.867Z,6.77
2017-08-14T20:03:09.443Z,4.90
2017-08-14T20:05:39.053Z,4.43
2017-08-14T20:22:49.511Z,3.83
2017-08-14T21:23:22.930Z,8.10
2017-08-14T21:34:36.254Z,7.97
2017-08-14T22:03:36.441Z,7.10
2017-08-14T22:20:40.860Z,6.07
2017-08-14T22:23:10.429Z,5.97
2017-08-14T22:25:40.047Z,6.40
2017-08-14T22:28:09.676Z,5.33
2017-08-14T22:30:39.249Z,6.83
2017-08-14T22:33:08.881Z,5.93
2017-08-14T22:35:38.458Z,6.13
2017-08-14T22:38:08.088Z,5.83
2017-08-14T22:40:37.671Z,5.80
2017-08-14T22:43:07.236Z,6.30
2017-08-14T22:45:36.847Z,6.00
2017-08-14T22:48:06.481Z,5.43
2017-08-14T22:50:36.059Z,6.90
2017-08-14T22:53:05.705Z,5.50
2017-08-14T22:55:35.278Z,5.53
2017-08-14T22:58:04.914Z,6.10
2017-08-14T23:00:34.538Z,6.00
2017-08-14T23:06:07.061Z,6.00
2017-08-14T23:08:36.633Z,5.67
2017-08-14T23:11:06.260Z,6.50
2017-08-14T23:13:35.829Z,5.27
2017-08-14T23:16:05.461Z,6.30
2017-08-14T23:18:35.030Z,5.33
2017-08-14T23:21:04.690Z,6.43
2017-08-14T23:23:34.266Z,5.87
2017-08-14T23:26:03.920Z,5.30
2017-08-14T23:28:33.503Z,5.70
2017-08-14T23:31:03.104Z,6.43
2017-08-14T23:33:32.700Z,6.43
2017-08-14T23:36:02.291Z,6.20
2017-08-14T23:38:38.077Z,5.27
2017-08-14T23:41:07.668Z,6.33
2017-08-14T23:43:37.285Z,5.80
2017-08-14T23:49:01.942Z,6.90
2017-08-14T23:51:31.502Z,6.30
2017-08-14T23:54:01.114Z,6.80
2017-08-14T23:56:30.685Z,5.87
